Time,TemperatureF,DewpointF,PressureIn,WindDirection,WindDirectionDegrees,WindSpeedMPH,WindSpeedGustMPH,Humidity,HourlyPrecipIn,Conditions,Clouds,dailyrainin,SoftwareType,DateUTC
2013-06-10 00:06:00,63.2,62.0,30.11,SSE,156,0.0,0.0,97,0.00,,,0.00,weatherlink.com 1.10,2013-06-10 04:06:00,
2013-06-10 00:21:00,63.0,63.0,30.11,SSE,157,0.0,0.0,98,0.00,,,0.00,weatherlink.com 1.10,2013-06-10 04:21:00,
2013-06-10 00:36:00,63.0,63.0,30.10,SSE,156,0.0,1.0,98,0.00,,,0.00,weatherlink.com 1.10,2013-06-10 04:36:00,
2013-06-10 00:51:00,63.0,63.0,30.10,SSE,156,0.0,1.0,98,0.00,,,0.00,weatherlink.com 1.10,2013-06-10 04:51:00,
2013-06-10 01:06:00,63.0,63.0,30.10,SSE,156,0.0,0.0,98,0.00,,,0.00,weatherlink.com 1.10,2013-06-10 05:06:00,
2013-06-10 01:36:00,63.1,63.0,30.09,SSE,158,0.0,0.0,98,0.00,,,0.00,weatherlink.com 1.10,2013-06-10 05:36:00,
2013-06-10 01:51:00,63.0,63.0,30.08,East,101,0.0,0.0,98,0.00,,,0.00,weatherlink.com 1.10,2013-06-10 05:51:00,
2013-06-10 02:06:00,63.1,63.0,30.08,SW,218,1.0,3.0,98,0.00,,,0.00,weatherlink.com 1.10,2013-06-10 06:06:00,
2013-06-10 02:51:00,63.2,62.0,30.07,SW,236,2.0,2.0,97,0.00,,,0.00,weatherlink.com 1.10,2013-06-10 06:51:00,
2013-06-10 03:06:00,63.1,62.0,30.06,SSE,162,1.0,2.0,97,0.00,,,0.00,weatherlink.com 1.10,2013-06-10 07:06:00,
2013-06-10 03:21:00,62.9,62.0,30.06,SSE,162,0.0,1.0,97,0.00,,,0.00,weatherlink.com 1.10,2013-06-10 07:21:00,
2013-06-10 03:36:00,62.9,62.0,30.06,North,360,1.0,4.0,97,0.00,,,0.00,weatherlink.com 1.10,2013-06-10 07:36:00,
2013-06-10 03:51:00,62.9,62.0,30.05,WNW,294,1.0,9.0,97,0.00,,,0.00,weatherlink.com 1.10,2013-06-10 07:51:00,
2013-06-10 04:06:00,63.1,62.0,30.05,SSE,167,4.0,9.0,96,0.00,,,0.00,weatherlink.com 1.10,2013-06-10 08:06:00,
2013-06-10 04:21:00,63.1,62.0,30.06,SSW,193,1.0,5.0,96,0.00,,,0.00,weatherlink.com 1.10,2013-06-10 08:21:00,
2013-06-10 04:51:00,62.4,61.0,30.05,WNW,294,2.0,5.0,96,0.00,,,0.00,weatherlink.com 1.10,2013-06-10 08:51:00,
2013-06-10 05:06:00,62.7,61.0,30.05,SE,135,0.0,4.0,95,0.00,,,0.00,weatherlink.com 1.10,2013-06-10 09:06:00,
2013-06-10 05:21:00,62.2,61.0,30.05,WSW,250,2.0,2.0,96,0.00,,,0.00,weatherlink.com 1.10,2013-06-10 09:21:00,
2013-06-10 05:36:00,62.3,61.0,30.05,NNE,25,4.0,9.0,95,0.00,,,0.00,weatherlink.com 1.10,2013-06-10 09:36:00,
2013-06-10 05:51:00,62.5,61.0,30.05,ESE,116,2.0,3.0,95,0.00,,,0.00,weatherlink.com 1.10,2013-06-10 09:51:00,
2013-06-10 06:06:00,62.6,61.0,30.06,ESE,102,2.0,4.0,94,0.00,,,0.00,weatherlink.com 1.10,2013-06-10 10:06:00,
2013-06-10 06:21:00,62.5,61.0,30.06,NW,322,4.0,5.0,95,0.00,,,0.00,weatherlink.com 1.10,2013-06-10 10:21:00,
2013-06-10 06:36:00,62.3,61.0,30.06,ESE,117,0.0,6.0,95,0.00,,,0.00,weatherlink.com 1.10,2013-06-10 10:36:00,
2013-06-10 06:51:00,62.0,61.0,30.07,SSE,156,0.0,0.0,96,0.00,,,0.00,weatherlink.com 1.10,2013-06-10 10:51:00,
2013-06-10 07:06:00,61.9,61.0,30.07,SE,131,1.0,2.0,96,0.00,,,0.00,weatherlink.com 1.10,2013-06-10 11:06:00,
2013-06-10 07:21:00,61.9,61.0,30.07,SE,145,1.0,2.0,96,0.00,,,0.00,weatherlink.com 1.10,2013-06-10 11:21:00,
2013-06-10 07:36:00,62.5,61.0,30.07,SSE,158,1.0,3.0,96,0.00,,,0.00,weatherlink.com 1.10,2013-06-10 11:36:00,
2013-06-10 08:06:00,64.4,63.0,30.07,SSE,165,0.0,2.0,94,0.00,,,0.00,weatherlink.com 1.10,2013-06-10 12:06:00,
2013-06-10 08:21:00,65.0,63.0,30.07,ESE,105,1.0,2.0,92,0.00,,,0.00,weatherlink.com 1.10,2013-06-10 12:21:00,
2013-06-10 08:36:00,64.8,62.0,30.08,SE,145,1.0,3.0,90,0.00,,,0.00,weatherlink.com 1.10,2013-06-10 12:36:00,
2013-06-10 08:51:00,64.7,62.0,30.07,East,91,4.0,4.0,91,0.00,,,0.00,weatherlink.com 1.10,2013-06-10 12:51:00,
2013-06-10 09:07:00,65.1,63.0,30.07,SE,143,0.0,2.0,92,0.00,,,0.00,weatherlink.com 1.10,2013-06-10 13:07:00,
2013-06-10 09:21:00,65.1,63.0,30.07,NW,314,0.0,7.0,91,0.00,,,0.00,weatherlink.com 1.10,2013-06-10 13:21:00,
2013-06-10 09:36:00,64.9,63.0,30.09,ENE,70,10.0,10.0,93,0.00,,,0.00,weatherlink.com 1.10,2013-06-10 13:36:00,
2013-06-10 09:52:00,64.2,63.0,30.08,ESE,121,1.0,4.0,95,0.00,,,0.00,weatherlink.com 1.10,2013-06-10 13:52:00,
2013-06-10 10:07:00,64.2,63.0,30.07,SSE,152,1.0,5.0,95,0.00,,,0.00,weatherlink.com 1.10,2013-06-10 14:07:00,
2013-06-10 10:22:00,64.5,63.0,30.07,ESE,118,2.0,4.0,95,0.00,,,0.00,weatherlink.com 1.10,2013-06-10 14:22:00,
2013-06-10 10:37:00,64.7,63.0,30.07,SSE,149,0.0,2.0,95,0.00,,,0.00,weatherlink.com 1.10,2013-06-10 14:37:00,
2013-06-10 10:52:00,65.5,63.0,30.07,ESE,117,2.0,4.0,92,0.00,,,0.00,weatherlink.com 1.10,2013-06-10 14:52:00,
2013-06-10 11:07:00,65.6,63.0,30.07,ENE,72,1.0,2.0,90,0.00,,,0.00,weatherlink.com 1.10,2013-06-10 15:07:00,
2013-06-10 11:22:00,65.5,64.0,30.06,SSE,161,0.0,2.0,94,0.00,,,0.00,weatherlink.com 1.10,2013-06-10 15:22:00,
2013-06-10 11:37:00,64.0,62.0,30.09,WNW,285,4.0,5.0,92,0.00,,,0.00,weatherlink.com 1.10,2013-06-10 15:37:00,
2013-06-10 11:52:00,61.9,61.0,30.08,NE,43,0.0,3.0,95,0.00,,,0.00,weatherlink.com 1.10,2013-06-10 15:52:00,
2013-06-10 12:07:00,60.8,59.0,30.10,SSW,204,1.0,3.0,94,0.00,,,0.00,weatherlink.com 1.10,2013-06-10 16:07:00,
2013-06-10 12:22:00,60.6,59.0,30.09,SSE,160,0.0,3.0,94,0.00,,,0.00,weatherlink.com 1.10,2013-06-10 16:22:00,
2013-06-10 12:37:00,60.8,59.0,30.09,SSE,156,1.0,2.0,95,0.00,,,0.00,weatherlink.com 1.10,2013-06-10 16:37:00,
2013-06-10 12:52:00,61.4,60.0,30.07,SSE,156,1.0,2.0,95,0.00,,,0.00,weatherlink.com 1.10,2013-06-10 16:52:00,
2013-06-10 13:07:00,62.7,62.0,30.07,SSE,157,0.0,0.0,96,0.00,,,0.00,weatherlink.com 1.10,2013-06-10 17:07:00,
2013-06-10 13:22:00,64.8,63.0,30.07,SSE,157,0.0,0.0,94,0.00,,,0.00,weatherlink.com 1.10,2013-06-10 17:22:00,
2013-06-10 13:37:00,67.4,64.0,30.06,SE,139,0.0,0.0,87,0.00,,,0.00,weatherlink.com 1.10,2013-06-10 17:37:00,
2013-06-10 13:52:00,68.1,64.0,30.06,NE,45,6.0,6.0,85,0.00,,,0.00,weatherlink.com 1.10,2013-06-10 17:52:00,
2013-06-10 14:07:00,68.9,64.0,30.05,NNE,33,0.0,2.0,85,0.00,,,0.00,weatherlink.com 1.10,2013-06-10 18:07:00,
2013-06-10 14:22:00,69.7,63.0,30.05,NW,321,1.0,1.0,78,0.00,,,0.00,weatherlink.com 1.10,2013-06-10 18:22:00,
2013-06-10 14:37:00,69.8,63.0,30.05,ENE,58,2.0,4.0,79,0.00,,,0.00,weatherlink.com 1.10,2013-06-10 18:37:00,
2013-06-10 14:52:00,71.3,63.0,30.05,NNE,15,1.0,7.0,74,0.00,,,0.00,weatherlink.com 1.10,2013-06-10 18:52:00,
2013-06-10 15:07:00,71.2,63.0,30.05,ESE,110,1.0,6.0,75,0.00,,,0.00,weatherlink.com 1.10,2013-06-10 19:07:00,
2013-06-10 15:22:00,70.3,61.0,30.06,ESE,121,3.0,4.0,72,0.00,,,0.00,weatherlink.com 1.10,2013-06-10 19:22:00,
2013-06-10 15:37:00,70.8,61.0,30.05,NNW,345,1.0,5.0,72,0.00,,,0.00,weatherlink.com 1.10,2013-06-10 19:37:00,
2013-06-10 15:52:00,71.4,61.0,30.05,WSW,242,1.0,4.0,69,0.00,,,0.00,weatherlink.com 1.10,2013-06-10 19:52:00,
2013-06-10 16:07:00,71.4,59.0,30.05,SE,141,0.0,4.0,65,0.00,,,0.00,weatherlink.com 1.10,2013-06-10 20:07:00,
2013-06-10 16:22:00,70.2,60.0,30.04,NNE,23,1.0,5.0,70,0.00,,,0.00,weatherlink.com 1.10,2013-06-10 20:22:00,
2013-06-10 16:37:00,69.2,61.0,30.03,SSW,195,1.0,3.0,76,0.00,,,0.00,weatherlink.com 1.10,2013-06-10 20:37:00,
2013-06-10 16:52:00,69.4,61.0,30.03,East,84,3.0,6.0,75,0.00,,,0.00,weatherlink.com 1.10,2013-06-10 20:52:00,
2013-06-10 17:07:00,68.1,60.0,30.04,East,98,2.0,2.0,76,0.00,,,0.00,weatherlink.com 1.10,2013-06-10 21:07:00,
2013-06-10 17:22:00,67.9,62.0,30.03,South,177,1.0,2.0,80,0.00,,,0.00,weatherlink.com 1.10,2013-06-10 21:22:00,
2013-06-10 17:37:00,68.5,61.0,30.03,SSW,194,1.0,2.0,77,0.00,,,0.00,weatherlink.com 1.10,2013-06-10 21:37:00,
2013-06-10 17:52:00,69.6,62.0,30.04,SE,143,0.0,5.0,77,0.00,,,0.00,weatherlink.com 1.10,2013-06-10 21:52:00,
2013-06-10 18:07:00,68.7,62.0,30.04,SE,146,1.0,2.0,79,0.00,,,0.00,weatherlink.com 1.10,2013-06-10 22:07:00,
2013-06-10 18:22:00,67.7,62.0,30.03,SSE,158,2.0,2.0,82,0.00,,,0.00,weatherlink.com 1.10,2013-06-10 22:22:00,
2013-06-10 18:37:00,66.7,62.0,30.03,SSE,162,1.0,3.0,84,0.00,,,0.00,weatherlink.com 1.10,2013-06-10 22:37:00,
2013-06-10 18:52:00,67.1,63.0,30.02,SSE,152,1.0,2.0,85,0.00,,,0.00,weatherlink.com 1.10,2013-06-10 22:52:00,
2013-06-10 19:07:00,67.0,60.0,30.02,South,171,2.0,3.0,79,0.00,,,0.00,weatherlink.com 1.10,2013-06-10 23:07:00,
2013-06-10 19:22:00,66.8,62.0,30.02,SSE,165,2.0,3.0,83,0.00,,,0.00,weatherlink.com 1.10,2013-06-10 23:22:00,
2013-06-10 19:37:00,66.2,61.0,30.02,SSE,158,1.0,3.0,83,0.00,,,0.00,weatherlink.com 1.10,2013-06-10 23:37:00,
2013-06-10 19:52:00,65.8,61.0,30.03,SSE,156,1.0,3.0,83,0.00,,,0.00,weatherlink.com 1.10,2013-06-10 23:52:00,
2013-06-10 20:07:00,65.2,60.0,30.03,SE,143,1.0,2.0,84,0.00,,,0.00,weatherlink.com 1.10,2013-06-11 00:07:00,
2013-06-10 20:22:00,64.4,60.0,30.03,SSE,155,2.0,2.0,86,0.00,,,0.00,weatherlink.com 1.10,2013-06-11 00:22:00,
2013-06-10 20:37:00,64.1,60.0,30.03,SSE,150,2.0,2.0,87,0.00,,,0.00,weatherlink.com 1.10,2013-06-11 00:37:00,
2013-06-10 20:52:00,63.9,60.0,30.02,South,169,2.0,2.0,88,0.00,,,0.00,weatherlink.com 1.10,2013-06-11 00:52:00,
2013-06-10 21:07:00,63.6,60.0,30.03,SSE,153,1.0,2.0,88,0.00,,,0.00,weatherlink.com 1.10,2013-06-11 01:07:00,
2013-06-10 21:22:00,63.4,60.0,30.04,SE,139,1.0,2.0,88,0.00,,,0.00,weatherlink.com 1.10,2013-06-11 01:22:00,
2013-06-10 21:37:00,63.3,60.0,30.04,SSE,153,0.0,0.0,89,0.00,,,0.00,weatherlink.com 1.10,2013-06-11 01:37:00,
2013-06-10 21:52:00,63.3,60.0,30.05,SE,132,0.0,0.0,89,0.00,,,0.00,weatherlink.com 1.10,2013-06-11 01:52:00,
2013-06-10 22:08:00,63.6,60.0,30.05,SE,144,1.0,2.0,89,0.00,,,0.00,weatherlink.com 1.10,2013-06-11 02:08:00,
2013-06-10 22:22:00,63.7,60.0,30.06,SE,146,0.0,1.0,88,0.00,,,0.00,weatherlink.com 1.10,2013-06-11 02:22:00,
2013-06-10 22:37:00,63.8,61.0,30.06,SE,124,1.0,2.0,89,0.00,,,0.00,weatherlink.com 1.10,2013-06-11 02:37:00,
2013-06-10 22:53:00,64.4,61.0,30.07,SSE,155,0.0,3.0,88,0.00,,,0.00,weatherlink.com 1.10,2013-06-11 02:53:00,
2013-06-10 23:07:00,64.3,61.0,30.07,SSW,193,1.0,3.0,89,0.00,,,0.00,weatherlink.com 1.10,2013-06-11 03:07:00,
2013-06-10 23:22:00,63.6,61.0,30.06,SSE,165,0.0,2.0,90,0.00,,,0.00,weatherlink.com 1.10,2013-06-11 03:22:00,
2013-06-10 23:37:00,63.1,60.0,30.06,East,91,1.0,1.0,90,0.00,,,0.00,weatherlink.com 1.10,2013-06-11 03:37:00,
2013-06-10 23:52:00,63.0,60.0,30.06,NW,305,0.0,3.0,90,0.00,,,0.00,weatherlink.com 1.10,2013-06-11 03:52:00,